createdAt,value
2022-10-20T00:01:14.940Z,14.70
2022-10-20T00:03:45.801Z,14.80
2022-10-20T00:06:24.104Z,14.70
2022-10-20T00:08:51.997Z,14.70
2022-10-20T00:11:20.605Z,14.70
2022-10-20T00:13:48.945Z,15.30
2022-10-20T00:16:16.679Z,14.70
2022-10-20T00:18:44.184Z,14.70
2022-10-20T00:21:13.666Z,14.70
2022-10-20T00:23:41.021Z,14.70
2022-10-20T00:26:12.595Z,14.70
2022-10-20T00:28:39.806Z,14.80
2022-10-20T00:31:06.907Z,14.80
2022-10-20T00:33:34.303Z,14.80
2022-10-20T00:36:02.345Z,14.80
2022-10-20T00:38:29.424Z,14.70
2022-10-20T00:40:56.604Z,14.80
2022-10-20T00:43:23.764Z,13.90
2022-10-20T00:45:52.623Z,14.70
2022-10-20T00:48:21.091Z,14.80
2022-10-20T00:50:52.711Z,14.80
2022-10-20T00:53:20.450Z,14.80
2022-10-20T00:55:48.962Z,14.80
2022-10-20T00:58:16.224Z,14.70
2022-10-20T01:00:44.497Z,14.70
2022-10-20T01:03:15.230Z,14.80
2022-10-20T01:05:42.482Z,14.80
2022-10-20T01:08:09.665Z,14.80
2022-10-20T01:10:40.865Z,14.80
2022-10-20T01:13:14.555Z,14.70
2022-10-20T01:15:50.429Z,14.70
2022-10-20T01:18:20.349Z,15.10
2022-10-20T01:20:53.444Z,14.80
2022-10-20T01:23:20.458Z,14.70
2022-10-20T01:25:53.749Z,14.80
2022-10-20T01:28:26.945Z,14.80
2022-10-20T01:30:57.598Z,14.80
2022-10-20T01:33:24.718Z,14.70
2022-10-20T01:36:10.667Z,14.80
2022-10-20T01:38:40.530Z,14.80
2022-10-20T01:41:07.560Z,15.00
2022-10-20T01:43:36.021Z,14.80
2022-10-20T01:46:03.660Z,14.80
2022-10-20T01:48:32.869Z,14.90
2022-10-20T01:51:01.557Z,14.70
2022-10-20T01:53:28.625Z,14.80
2022-10-20T01:55:56.957Z,14.80
2022-10-20T01:58:26.770Z,14.80
2022-10-20T02:00:54.303Z,14.80
2022-10-20T02:03:43.869Z,14.80
2022-10-20T02:06:16.789Z,14.80
2022-10-20T02:08:46.714Z,14.80
2022-10-20T02:11:22.503Z,14.80
2022-10-20T02:13:50.502Z,15.60
2022-10-20T02:16:21.276Z,14.80
2022-10-20T02:18:48.742Z,14.80
2022-10-20T02:21:16.531Z,14.80
2022-10-20T02:23:44.943Z,15.30
2022-10-20T02:26:13.921Z,14.80
2022-10-20T02:28:42.093Z,14.80
2022-10-20T02:31:09.417Z,14.80
2022-10-20T02:33:37.163Z,14.90
2022-10-20T02:36:05.523Z,14.90
2022-10-20T02:38:32.740Z,14.90
2022-10-20T02:40:59.797Z,14.80
2022-10-20T02:43:26.840Z,14.80
2022-10-20T02:45:53.892Z,14.80
2022-10-20T02:48:20.989Z,14.90
2022-10-20T02:50:48.036Z,14.80
2022-10-20T02:53:15.109Z,14.90
2022-10-20T02:55:42.861Z,14.90
2022-10-20T02:58:10.217Z,14.90
2022-10-20T03:00:37.322Z,14.80
2022-10-20T03:03:04.442Z,14.80
2022-10-20T03:05:31.521Z,14.30
2022-10-20T03:07:58.643Z,14.80
2022-10-20T03:10:25.764Z,14.80
2022-10-20T03:12:52.808Z,14.90
2022-10-20T03:15:19.860Z,14.80
2022-10-20T03:17:46.940Z,14.90
2022-10-20T03:20:14.132Z,15.60
2022-10-20T03:22:41.251Z,14.90
2022-10-20T03:25:08.429Z,14.90
2022-10-20T03:27:35.732Z,14.80
2022-10-20T03:30:03.599Z,14.90
2022-10-20T03:32:30.672Z,14.90
2022-10-20T03:34:57.774Z,14.80
2022-10-20T03:37:24.919Z,14.90
2022-10-20T03:39:51.968Z,14.90
2022-10-20T03:42:19.029Z,14.90
2022-10-20T03:44:46.144Z,14.90
2022-10-20T03:47:13.658Z,14.90
2022-10-20T03:49:40.816Z,14.90
2022-10-20T03:52:07.889Z,14.90
2022-10-20T03:54:35.433Z,14.90
2022-10-20T03:57:06.808Z,14.90
2022-10-20T03:59:35.093Z,14.90
2022-10-20T04:02:02.203Z,14.90
2022-10-20T04:04:29.363Z,14.90
2022-10-20T04:06:56.518Z,14.90
2022-10-20T04:09:23.604Z,14.90
2022-10-20T04:11:50.681Z,14.90
2022-10-20T04:14:17.756Z,14.90
2022-10-20T04:16:44.840Z,14.40
2022-10-20T04:19:11.949Z,16.00
2022-10-20T04:21:39.037Z,14.90
2022-10-20T04:24:07.342Z,14.90
2022-10-20T04:26:34.388Z,14.90
2022-10-20T04:29:02.603Z,14.90
2022-10-20T04:31:29.675Z,14.90
2022-10-20T04:33:56.732Z,14.90
2022-10-20T04:36:23.892Z,14.80
2022-10-20T04:38:50.959Z,14.90
2022-10-20T04:41:18.011Z,14.90
2022-10-20T04:43:49.561Z,16.10
2022-10-20T04:46:16.661Z,14.90
2022-10-20T04:48:46.859Z,14.90
2022-10-20T04:51:15.032Z,14.90
2022-10-20T04:53:42.129Z,14.90
2022-10-20T04:56:11.618Z,14.90
2022-10-20T04:58:38.658Z,14.90
2022-10-20T05:01:09.653Z,14.90
2022-10-20T05:03:36.950Z,14.90
2022-10-20T05:06:11.783Z,14.90
2022-10-20T05:08:39.409Z,14.90
2022-10-20T05:11:06.954Z,14.90
2022-10-20T05:13:34.048Z,14.90
2022-10-20T05:16:01.170Z,14.90
2022-10-20T05:18:28.561Z,14.90
2022-10-20T05:21:10.780Z,15.00
2022-10-20T05:23:38.821Z,14.90
2022-10-20T05:26:06.910Z,14.90
2022-10-20T05:28:34.027Z,15.20
2022-10-20T05:31:08.365Z,15.00
2022-10-20T05:33:35.695Z,15.00
2022-10-20T05:36:09.623Z,15.00
2022-10-20T05:38:36.981Z,15.00
2022-10-20T05:41:11.092Z,15.00
2022-10-20T05:43:38.744Z,15.00
2022-10-20T05:46:06.239Z,15.00
2022-10-20T05:48:33.368Z,15.00
2022-10-20T05:51:17.812Z,15.00
2022-10-20T05:53:46.980Z,15.30
2022-10-20T05:56:15.706Z,15.00
2022-10-20T05:58:44.408Z,15.00
2022-10-20T06:01:17.202Z,15.00
2022-10-20T06:03:47.956Z,15.00
2022-10-20T06:06:15.004Z,15.00
2022-10-20T06:08:42.135Z,15.00
2022-10-20T06:11:10.444Z,15.00
2022-10-20T06:13:37.541Z,15.00
2022-10-20T06:16:05.654Z,15.00
2022-10-20T06:18:33.210Z,15.00
2022-10-20T06:21:04.206Z,15.00
2022-10-20T06:23:34.617Z,15.00
2022-10-20T06:26:03.330Z,15.00
2022-10-20T06:28:31.642Z,15.00
2022-10-20T06:30:59.309Z,15.00
2022-10-20T06:33:29.460Z,15.00
2022-10-20T06:36:01.099Z,15.00
2022-10-20T06:38:28.549Z,15.00
2022-10-20T06:40:55.597Z,15.00
2022-10-20T06:43:22.828Z,15.10
2022-10-20T06:45:56.612Z,15.30
2022-10-20T06:48:23.767Z,15.10
2022-10-20T06:50:55.605Z,15.10
2022-10-20T06:53:22.683Z,15.10
2022-10-20T06:56:15.769Z,15.10
2022-10-20T06:58:43.886Z,15.10
2022-10-20T07:01:15.185Z,15.10
2022-10-20T07:03:43.359Z,15.40
2022-10-20T07:06:12.922Z,15.10
2022-10-20T07:08:40.023Z,15.10
2022-10-20T07:11:08.778Z,15.60
2022-10-20T07:13:36.759Z,15.10
2022-10-20T07:16:04.583Z,15.10
2022-10-20T07:18:32.037Z,15.10
2022-10-20T07:21:00.141Z,15.10
2022-10-20T07:23:27.803Z,15.10
2022-10-20T07:26:08.273Z,15.10
2022-10-20T07:28:37.144Z,15.10
2022-10-20T07:31:05.057Z,15.10
2022-10-20T07:33:32.649Z,15.10
2022-10-20T07:35:59.745Z,15.00
2022-10-20T07:38:26.789Z,15.10
2022-10-20T07:40:55.010Z,15.00
2022-10-20T07:43:23.508Z,15.10
2022-10-20T07:45:50.689Z,15.10
2022-10-20T07:48:17.799Z,15.10
2022-10-20T07:50:44.863Z,15.10
2022-10-20T07:53:12.145Z,15.10
2022-10-20T07:55:39.487Z,15.10
2022-10-20T07:58:07.767Z,15.00
2022-10-20T08:00:35.066Z,15.00
2022-10-20T08:03:02.166Z,15.10
2022-10-20T08:05:30.178Z,15.00
2022-10-20T08:07:58.259Z,15.10
2022-10-20T08:10:25.468Z,15.10
2022-10-20T08:12:52.554Z,15.10
2022-10-20T08:15:22.314Z,15.10
2022-10-20T08:17:49.412Z,15.20
2022-10-20T08:20:20.391Z,15.30
2022-10-20T08:22:49.549Z,14.50
2022-10-20T08:25:17.057Z,15.30
2022-10-20T08:27:44.137Z,15.30
2022-10-20T08:30:24.899Z,15.20
2022-10-20T08:32:52.971Z,15.60
2022-10-20T08:35:20.634Z,15.40
2022-10-20T08:37:47.949Z,15.40
2022-10-20T08:40:20.312Z,15.40
2022-10-20T08:42:48.248Z,15.40
2022-10-20T08:45:16.728Z,15.40
2022-10-20T08:47:44.441Z,16.90
2022-10-20T08:50:13.073Z,15.40
2022-10-20T08:52:41.019Z,15.40
2022-10-20T08:55:08.653Z,15.40
2022-10-20T08:57:36.585Z,15.50
2022-10-20T09:00:21.024Z,15.50
2022-10-20T09:02:48.941Z,15.50
2022-10-20T09:05:19.194Z,16.50
2022-10-20T09:07:49.849Z,15.60
2022-10-20T09:10:32.202Z,15.60
2022-10-20T09:13:00.060Z,15.60
2022-10-20T09:15:27.653Z,15.70
2022-10-20T09:17:56.873Z,15.70
2022-10-20T09:20:44.454Z,15.70
2022-10-20T09:23:39.570Z,15.70
2022-10-20T09:26:03.994Z,15.70
2022-10-20T09:28:38.365Z,15.40
2022-10-20T09:31:33.493Z,15.80
2022-10-20T09:34:00.690Z,15.70
2022-10-20T09:36:33.782Z,15.80
2022-10-20T09:39:01.278Z,15.80
2022-10-20T09:41:30.548Z,15.80
2022-10-20T09:44:02.138Z,15.80
2022-10-20T09:46:30.809Z,15.90
2022-10-20T09:48:58.358Z,15.80
2022-10-20T09:51:26.817Z,16.70
2022-10-20T09:54:15.058Z,15.90
2022-10-20T09:56:42.842Z,15.90
2022-10-20T09:59:19.666Z,15.90
2022-10-20T10:02:12.888Z,16.00
2022-10-20T10:04:41.706Z,16.80
2022-10-20T10:07:35.152Z,16.10
2022-10-20T10:10:08.175Z,16.10
2022-10-20T10:12:39.111Z,16.10
2022-10-20T10:15:23.721Z,16.10
2022-10-20T10:17:51.157Z,16.10
2022-10-20T10:20:18.181Z,16.20
2022-10-20T10:22:45.282Z,16.10
2022-10-20T10:25:41.948Z,16.20
2022-10-20T10:28:32.240Z,16.20
2022-10-20T10:31:10.651Z,16.20
2022-10-20T10:33:37.780Z,16.20
2022-10-20T10:36:07.422Z,16.20
2022-10-20T10:38:36.266Z,16.10
2022-10-20T10:41:20.261Z,16.10
2022-10-20T10:43:48.754Z,16.10
2022-10-20T10:46:36.822Z,15.40
2022-10-20T10:49:22.580Z,16.00
2022-10-20T10:51:49.656Z,16.00
2022-10-20T10:54:19.762Z,15.90
2022-10-20T10:56:48.784Z,15.90
2022-10-20T10:59:22.552Z,15.90
2022-10-20T11:02:08.327Z,15.90
2022-10-20T11:04:50.776Z,16.00
2022-10-20T11:07:20.699Z,16.10
2022-10-20T11:10:04.800Z,16.20
2022-10-20T11:12:42.141Z,16.30
2022-10-20T11:15:21.706Z,16.30
2022-10-20T11:17:54.820Z,16.40
2022-10-20T11:20:21.968Z,16.40
2022-10-20T11:22:58.065Z,16.50
2022-10-20T11:25:25.238Z,16.50
2022-10-20T11:27:52.331Z,16.60
2022-10-20T11:30:21.397Z,16.50
2022-10-20T11:33:01.262Z,16.50
2022-10-20T11:35:39.707Z,16.50
2022-10-20T11:38:15.906Z,16.40
2022-10-20T11:41:03.235Z,16.40
2022-10-20T11:43:37.335Z,16.40
2022-10-20T11:46:08.266Z,16.50
2022-10-20T11:48:39.357Z,16.60
2022-10-20T11:51:24.980Z,16.60
2022-10-20T11:54:04.314Z,16.70
2022-10-20T11:56:50.570Z,16.70
2022-10-20T11:59:21.175Z,16.70
2022-10-20T12:02:10.085Z,16.70
2022-10-20T12:04:52.426Z,16.70
2022-10-20T12:07:32.426Z,16.70
2022-10-20T12:10:15.191Z,16.70
2022-10-20T12:13:17.570Z,16.60
2022-10-20T12:15:48.992Z,16.60
2022-10-20T12:18:26.872Z,16.80
2022-10-20T12:21:00.765Z,16.60
2022-10-20T12:23:44.398Z,16.60
2022-10-20T12:26:36.631Z,16.60
2022-10-20T12:29:23.756Z,16.60
2022-10-20T12:32:09.702Z,16.50
2022-10-20T12:34:41.834Z,16.50
2022-10-20T12:37:15.700Z,16.50
2022-10-20T12:39:43.228Z,16.40
2022-10-20T12:42:20.395Z,16.30
2022-10-20T12:44:47.687Z,16.40
2022-10-20T12:47:34.661Z,16.70
2022-10-20T12:50:07.749Z,16.40
2022-10-20T12:52:36.407Z,16.40
2022-10-20T12:55:41.815Z,16.40
2022-10-20T12:58:18.685Z,16.40
2022-10-20T13:00:49.492Z,16.20
2022-10-20T13:03:32.011Z,16.40
2022-10-20T13:05:59.581Z,16.40
2022-10-20T13:08:30.530Z,16.30
2022-10-20T13:11:17.618Z,16.40
2022-10-20T13:14:03.872Z,16.50
2022-10-20T13:16:32.738Z,16.50
2022-10-20T13:19:04.261Z,16.50
2022-10-20T13:21:34.463Z,16.60
2022-10-20T13:24:03.439Z,16.60
2022-10-20T13:26:50.916Z,16.70
2022-10-20T13:29:20.134Z,16.70
2022-10-20T13:31:53.427Z,16.90
2022-10-20T13:34:30.437Z,16.70
2022-10-20T13:37:21.663Z,16.70
2022-10-20T13:39:52.599Z,16.70
2022-10-20T13:42:42.279Z,15.80
2022-10-20T13:45:29.804Z,16.70
2022-10-20T13:48:04.732Z,16.80
2022-10-20T13:50:36.661Z,16.80
2022-10-20T13:53:09.609Z,16.80
2022-10-20T13:55:55.412Z,16.70
2022-10-20T13:58:23.385Z,16.70
2022-10-20T14:01:07.466Z,16.70
2022-10-20T14:03:41.426Z,17.00
2022-10-20T14:06:30.713Z,16.60
2022-10-20T14:08:58.646Z,16.50
2022-10-20T14:11:32.067Z,16.30
2022-10-20T14:13:59.674Z,16.10
2022-10-20T14:16:27.519Z,15.90
2022-10-20T14:19:05.341Z,15.80
2022-10-20T14:21:43.204Z,15.80
2022-10-20T14:24:26.020Z,15.70
2022-10-20T14:26:55.326Z,15.70
2022-10-20T14:29:24.022Z,15.60
2022-10-20T14:31:51.382Z,15.60
2022-10-20T14:34:23.274Z,15.60
2022-10-20T14:36:51.556Z,15.10
2022-10-20T14:39:26.203Z,15.50
2022-10-20T14:41:55.204Z,15.50
2022-10-20T14:44:31.145Z,15.50
2022-10-20T14:47:00.831Z,15.50
2022-10-20T14:49:29.686Z,15.50
2022-10-20T14:52:00.572Z,15.50
2022-10-20T14:54:36.508Z,15.50
2022-10-20T14:57:10.382Z,15.50
2022-10-20T14:59:49.612Z,15.50
2022-10-20T15:02:20.141Z,16.20
2022-10-20T15:04:48.098Z,15.50
2022-10-20T15:07:27.450Z,15.40
2022-10-20T15:10:04.194Z,15.40
2022-10-20T15:12:39.283Z,15.40
2022-10-20T15:15:27.136Z,15.40
2022-10-20T15:18:06.505Z,15.50
2022-10-20T15:20:33.599Z,15.40
2022-10-20T15:23:05.924Z,15.40
2022-10-20T15:25:40.758Z,15.40
2022-10-20T15:28:15.193Z,15.40
2022-10-20T15:30:42.378Z,15.40
2022-10-20T15:33:12.806Z,15.40
2022-10-20T15:35:44.949Z,15.50
2022-10-20T15:38:12.006Z,15.40
2022-10-20T15:40:39.123Z,16.30
2022-10-20T15:43:06.225Z,15.40
2022-10-20T15:45:34.979Z,15.40
2022-10-20T15:48:02.039Z,15.40
2022-10-20T15:50:29.189Z,15.40
2022-10-20T15:52:56.229Z,15.10
2022-10-20T15:55:27.894Z,15.40
2022-10-20T15:57:55.476Z,15.40
2022-10-20T16:00:23.766Z,15.40
2022-10-20T16:02:51.024Z,15.30
2022-10-20T16:05:18.838Z,15.30
2022-10-20T16:07:46.393Z,15.30
2022-10-20T16:10:13.742Z,15.30
2022-10-20T16:12:41.471Z,15.30
2022-10-20T16:15:08.878Z,15.30
2022-10-20T16:17:36.229Z,15.40
2022-10-20T16:20:04.378Z,15.30
2022-10-20T16:22:31.489Z,15.30
2022-10-20T16:25:01.426Z,15.30
2022-10-20T16:27:29.428Z,15.30
2022-10-20T16:29:56.558Z,15.70
2022-10-20T16:32:25.629Z,15.30
2022-10-20T16:34:52.754Z,15.20
2022-10-20T16:37:19.910Z,15.30
2022-10-20T16:39:47.051Z,15.30
2022-10-20T16:42:14.171Z,15.40
2022-10-20T16:44:41.236Z,15.30
2022-10-20T16:47:08.508Z,15.30
2022-10-20T16:49:35.609Z,15.40
2022-10-20T16:52:02.717Z,15.30
2022-10-20T16:54:29.985Z,15.30
2022-10-20T16:56:57.101Z,15.30
2022-10-20T16:59:24.174Z,15.30
2022-10-20T17:01:55.156Z,15.50
2022-10-20T17:04:24.019Z,15.30
2022-10-20T17:06:51.144Z,15.30
2022-10-20T17:09:18.208Z,15.70
2022-10-20T17:11:45.314Z,15.30
2022-10-20T17:14:12.372Z,15.30
2022-10-20T17:16:40.267Z,15.20
2022-10-20T17:19:07.394Z,15.30
2022-10-20T17:21:34.893Z,15.30
2022-10-20T17:24:02.236Z,15.30
2022-10-20T17:26:30.573Z,15.20
2022-10-20T17:28:58.894Z,15.20
2022-10-20T17:31:26.384Z,15.20
2022-10-20T17:33:54.813Z,15.20
2022-10-20T17:36:26.114Z,15.40
2022-10-20T17:38:55.122Z,15.10
2022-10-20T17:41:22.202Z,15.10
2022-10-20T17:43:49.443Z,15.10
2022-10-20T17:46:17.800Z,15.00
2022-10-20T17:48:45.359Z,15.00
2022-10-20T17:51:12.454Z,15.00
2022-10-20T17:53:40.636Z,14.90
2022-10-20T17:56:12.854Z,14.80
2022-10-20T17:58:41.435Z,14.00
2022-10-20T18:01:09.723Z,14.80
2022-10-20T18:03:37.155Z,14.80
2022-10-20T18:06:11.543Z,14.80
2022-10-20T18:08:39.001Z,14.70
2022-10-20T18:11:10.002Z,14.70
2022-10-20T18:13:37.882Z,14.70
2022-10-20T18:16:05.966Z,14.60
2022-10-20T18:18:33.053Z,14.60
2022-10-20T18:21:00.183Z,14.60
2022-10-20T18:23:29.735Z,14.50
2022-10-20T18:25:57.498Z,14.50
2022-10-20T18:28:25.130Z,14.40
2022-10-20T18:30:52.257Z,14.30
2022-10-20T18:33:19.346Z,14.30
2022-10-20T18:35:46.401Z,14.20
2022-10-20T18:38:15.992Z,14.20
2022-10-20T18:40:43.108Z,14.20
2022-10-20T18:43:13.362Z,14.10
2022-10-20T18:45:40.415Z,14.10
2022-10-20T18:48:07.614Z,13.80
2022-10-20T18:50:34.697Z,14.10
2022-10-20T18:53:01.808Z,14.00
2022-10-20T18:55:29.184Z,14.00
2022-10-20T18:57:56.317Z,13.90
2022-10-20T19:00:23.383Z,13.90
2022-10-20T19:02:54.792Z,14.50
2022-10-20T19:05:24.011Z,13.90
2022-10-20T19:07:51.081Z,13.90
2022-10-20T19:10:18.966Z,13.80
2022-10-20T19:12:46.114Z,13.80
2022-10-20T19:15:13.259Z,14.00
2022-10-20T19:17:40.346Z,13.80
2022-10-20T19:20:07.732Z,13.70
2022-10-20T19:22:34.870Z,13.80
2022-10-20T19:25:01.967Z,13.80
2022-10-20T19:27:29.081Z,13.70
2022-10-20T19:29:56.357Z,13.70
2022-10-20T19:32:23.479Z,13.70
2022-10-20T19:34:50.621Z,13.60
2022-10-20T19:37:17.738Z,13.60
2022-10-20T19:39:44.830Z,13.60
2022-10-20T19:42:12.250Z,13.60
2022-10-20T19:44:39.602Z,13.50
2022-10-20T19:47:08.031Z,13.60
2022-10-20T19:49:35.464Z,13.40
2022-10-20T19:52:02.556Z,13.50
2022-10-20T19:54:29.613Z,13.50
2022-10-20T19:56:56.769Z,13.40
2022-10-20T19:59:23.943Z,13.40
2022-10-20T20:01:52.598Z,13.40
2022-10-20T20:04:19.729Z,13.10
2022-10-20T20:06:46.822Z,13.40
2022-10-20T20:09:15.818Z,13.30
2022-10-20T20:11:43.044Z,13.30
2022-10-20T20:14:12.107Z,13.20
2022-10-20T20:16:39.393Z,13.80
2022-10-20T20:19:06.652Z,13.20
2022-10-20T20:21:33.811Z,13.10
2022-10-20T20:24:01.747Z,13.10
2022-10-20T20:26:29.579Z,13.10
2022-10-20T20:28:57.306Z,13.30
2022-10-20T20:31:24.717Z,13.10
2022-10-20T20:33:52.408Z,13.00
2022-10-20T20:36:19.889Z,13.00
2022-10-20T20:38:46.997Z,13.00
2022-10-20T20:41:15.706Z,13.00
2022-10-20T20:43:45.349Z,13.00
2022-10-20T20:46:13.729Z,12.10
2022-10-20T20:48:41.369Z,13.00
2022-10-20T20:51:08.930Z,12.90
2022-10-20T20:53:36.668Z,12.90
2022-10-20T20:56:05.120Z,12.90
2022-10-20T20:58:32.535Z,12.90
2022-10-20T21:01:04.684Z,12.90
2022-10-20T21:03:32.159Z,12.90
2022-10-20T21:06:02.900Z,12.80
2022-10-20T21:08:31.210Z,12.90
2022-10-20T21:11:03.580Z,12.80
2022-10-20T21:13:33.872Z,13.90
2022-10-20T21:16:10.969Z,12.80
2022-10-20T21:18:38.906Z,12.80
2022-10-20T21:21:13.365Z,12.70
2022-10-20T21:23:40.840Z,13.40
2022-10-20T21:26:08.432Z,12.70
2022-10-20T21:28:35.870Z,12.80
2022-10-20T21:31:06.513Z,12.70
2022-10-20T21:33:33.771Z,12.70
2022-10-20T21:36:01.817Z,12.70
2022-10-20T21:38:29.582Z,12.70
2022-10-20T21:41:01.220Z,12.60
2022-10-20T21:43:29.173Z,12.70
2022-10-20T21:45:56.292Z,12.70
2022-10-20T21:48:24.520Z,12.60
2022-10-20T21:50:51.610Z,12.70
2022-10-20T21:53:18.719Z,12.70
2022-10-20T21:55:45.774Z,12.70
2022-10-20T21:58:12.920Z,12.60
2022-10-20T22:00:40.100Z,12.60
2022-10-20T22:03:07.689Z,12.60
2022-10-20T22:05:36.302Z,12.60
2022-10-20T22:08:03.538Z,12.60
2022-10-20T22:10:30.693Z,12.60
2022-10-20T22:12:57.818Z,12.60
2022-10-20T22:15:24.935Z,12.60
2022-10-20T22:17:52.030Z,12.50
2022-10-20T22:20:22.453Z,12.50
2022-10-20T22:22:49.534Z,12.50
2022-10-20T22:25:16.670Z,12.60
2022-10-20T22:27:45.163Z,12.30
2022-10-20T22:30:13.323Z,12.40
2022-10-20T22:32:40.678Z,12.40
2022-10-20T22:35:08.087Z,12.40
2022-10-20T22:37:35.175Z,13.10
2022-10-20T22:40:02.444Z,12.30
2022-10-20T22:42:31.959Z,13.30
2022-10-20T22:44:59.080Z,12.30
2022-10-20T22:47:26.176Z,12.50
2022-10-20T22:49:53.469Z,12.30
2022-10-20T22:52:20.522Z,12.30
2022-10-20T22:54:47.642Z,12.20
2022-10-20T22:57:14.866Z,12.80
2022-10-20T22:59:41.952Z,12.30
2022-10-20T23:02:09.010Z,12.30
2022-10-20T23:04:36.062Z,12.30
2022-10-20T23:07:03.252Z,12.30
2022-10-20T23:09:30.317Z,13.60
2022-10-20T23:11:57.399Z,12.30
2022-10-20T23:14:24.445Z,12.40
2022-10-20T23:16:51.517Z,12.40
2022-10-20T23:19:18.705Z,12.40
2022-10-20T23:21:45.790Z,12.40
2022-10-20T23:24:12.881Z,12.40
2022-10-20T23:26:39.976Z,12.40
2022-10-20T23:29:07.161Z,12.40
2022-10-20T23:31:34.213Z,12.40
2022-10-20T23:34:01.565Z,12.40
2022-10-20T23:36:28.671Z,12.40
2022-10-20T23:38:55.769Z,12.40
2022-10-20T23:41:22.876Z,12.10
2022-10-20T23:43:50.069Z,12.40
2022-10-20T23:46:17.214Z,12.40
2022-10-20T23:48:44.579Z,12.40
2022-10-20T23:51:14.340Z,12.40
2022-10-20T23:53:41.408Z,13.30
2022-10-20T23:56:09.626Z,12.40
2022-10-20T23:58:37.257Z,12.50
